Latest Weather Observations for High Range (Wanganderry)

IDN60801

Issued at 2:05 pm EST Monday 22 September 2014 (issued every 30 minutes, with the page automatically refreshed every 10 minutes)

About weather observations | Map of weather stations | Latest weather observations for NSW | Other Formats
Station Details ID: 068262 Name: HIGH RANGE AWS (WANGANDERRY) Lat: -34.33 Lon: 150.27 Height: 813.6 m
Data from the previous 72 hours. | See also: Recent months for locations in New South Wales
Date/Time
EST
Temp
°C
App
Temp
°C
Dew
Point
Rel
Hum
%
Delta-T
°C
Wind Press
QNH
hPa
Press
MSL
hPa
Rain
since 9 am
mm
Dir
 
Spd
km/h
Gust
km/h
Spd
kts
Gust
kts
22/02:00pm 16.4 14.1 2.8 40 6.4 ESE 4 9 2 5 1028.7 1028.1 0.0
22/01:30pm 16.1 13.3 3.2 42 6.1 N 7 17 4 9 1029.1 1028.4 0.0
22/01:00pm 15.6 13.2 4.3 47 5.5 E 6 17 3 9 1029.5 1028.9 0.0
22/12:30pm 15.0 11.4 3.2 45 5.6 NNW 11 19 6 10 1029.8 1029.2 0.0
22/12:00pm 14.9 12.0 4.9 51 4.9 N 9 19 5 10 1030.4 1029.7 0.0
22/11:30am 15.8 13.9 9.2 65 3.5 ENE 9 17 5 9 1030.9 1030.3 0.0
22/11:00am 14.8 12.9 7.6 62 3.7 NNE 7 15 4 8 1031.3 1030.7 0.0
22/10:30am 13.8 11.0 6.9 63 3.5 NE 11 17 6 9 1031.6 1030.9 0.0
22/10:00am 12.8 9.9 6.4 65 3.2 N 11 19 6 10 1031.6 1030.9 0.0
22/09:30am 12.4 8.9 5.6 63 3.3 NNE 13 20 7 11 1031.8 1031.2 0.0
22/09:00am 11.4 8.0 6.1 70 2.6 N 13 19 7 10 1031.7 1031.1 0.0
22/08:30am 10.8 7.1 6.4 74 2.2 N 15 19 8 10 1031.6 1030.9 0.0
22/08:00am 9.9 6.0 7.0 82 1.4 N 17 20 9 11 1031.3 1030.7 0.0
22/07:30am 8.8 5.8 7.6 92 0.6 N 13 19 7 10 1031.2 1030.6 0.0
22/07:00am 8.0 4.5 7.2 95 0.4 N 15 17 8 9 1030.9 1030.3 0.0
22/06:30am 7.5 4.4 7.2 98 0.1 NNW 13 15 7 8 1030.6 1030.0 0.0
22/06:00am 6.6 2.9 6.3 98 0.1 NNW 15 15 8 8 1030.3 1029.6 0.0
22/05:30am 6.3 3.7 6.0 98 0.1 N 9 11 5 6 1029.9 1029.3 0.0
22/05:00am 6.4 4.2 6.1 98 0.1 NNE 7 9 4 5 1029.8 1029.2 0.0
22/04:30am 6.6 4.6 6.3 98 0.1 NNE 6 9 3 5 1029.5 1028.9 0.0
22/04:00am 6.9 4.8 6.6 98 0.1 NNE 7 9 4 5 1029.5 1028.9 0.0
22/03:30am 6.5 4.5 6.1 97 0.2 NNE 6 7 3 4 1029.4 1028.7 0.0
22/03:00am 6.6 3.4 5.2 91 0.6 N 11 13 6 7 1029.3 1028.6 0.0
22/02:30am 7.4 4.0 5.9 90 0.7 N 13 17 7 9 1029.4 1028.7 0.0
22/02:00am 7.3 3.6 6.2 93 0.5 N 15 19 8 10 1029.5 1028.9 0.0
22/01:30am 7.5 3.9 6.9 96 0.3 NNW 15 19 8 10 1029.7 1029.1 0.0
22/01:00am 7.8 6.0 7.2 96 0.3 NE 6 7 3 4 1030.3 1029.6 0.0
22/12:30am 7.8 6.0 7.2 96 0.3 NE 6 7 3 4 1030.5 1029.8 0.0
22/12:00am 7.8 5.8 7.2 96 0.3 NE 7 9 4 5 1030.6 1030.0 0.0
 
Date/Time
EST
Temp
°C
App
Temp
°C
Dew
Point
Rel
Hum
%
Delta-T
°C
Wind Press
QNH
hPa
Press
MSL
hPa
Rain
since 9 am
mm
Dir
 
Spd
km/h
Gust
km/h
Spd
kts
Gust
kts
21/11:30pm 7.8 5.8 7.1 95 0.3 ENE 7 11 4 6 1030.6 1030.0 0.0
21/11:00pm 7.9 5.1 7.1 95 0.4 NE 11 13 6 7 1030.6 1030.0 0.0
21/10:30pm 7.9 5.1 7.1 95 0.4 NNE 11 13 6 7 1030.9 1030.3 0.0
21/10:00pm 7.9 5.1 7.1 95 0.4 NNE 11 13 6 7 1031.0 1030.4 0.0
21/09:30pm 7.9 4.8 7.1 95 0.4 NNE 13 17 7 9 1031.1 1030.5 0.0
21/09:00pm 7.9 5.1 7.1 95 0.4 NE 11 17 6 9 1031.1 1030.5 0.0
21/08:30pm 7.8 4.3 7.1 95 0.3 NE 15 20 8 11 1030.8 1030.2 0.0
21/08:00pm 7.9 3.6 6.8 93 0.5 NE 19 24 10 13 1030.4 1029.7 0.0
21/07:30pm 7.5 3.8 6.3 92 0.6 NE 15 19 8 10 1029.6 1029.0 0.0
21/07:00pm 8.2 5.0 6.7 90 0.7 ENE 13 17 7 9 1029.1 1028.4 0.0
21/06:30pm 9.0 5.4 6.8 86 1.1 E 15 20 8 11 1028.5 1027.9 0.0
21/06:00pm 10.3 6.5 7.4 82 1.4 ENE 17 24 9 13 1027.8 1027.1 0.0
21/05:30pm 11.7 7.2 7.0 73 2.4 ENE 20 26 11 14 1027.4 1026.8 0.0
21/05:00pm 14.3 11.2 3.5 48 5.1 ESE 9 13 5 7 1027.2 1026.5 0.0
21/04:30pm 15.0 11.7 2.2 42 5.9 SSE 9 15 5 8 1027.1 1026.4 0.0
21/04:00pm 15.6 13.3 2.7 42 6.0 ESE 4 9 2 5 1027.0 1026.3 0.0
21/03:30pm 15.5 13.3 3.3 44 5.8 ESE 4 6 2 3 1027.1 1026.4 0.0
21/03:00pm 15.7 13.5 3.5 44 5.8 WSW 4 7 2 4 1027.1 1026.4 0.0
21/02:30pm 15.0 12.5 3.5 46 5.5 NNW 6 11 3 6 1027.4 1026.8 0.0
21/02:00pm 14.6 11.2 4.0 49 5.1 W 11 20 6 11 1027.7 1027.0 0.0
21/01:30pm 14.7 11.5 3.2 46 5.4 NNW 9 17 5 9 1027.9 1027.2 0.0
21/01:00pm 14.1 10.7 3.8 50 4.9 N 11 19 6 10 1028.3 1027.6 0.0
21/12:30pm 13.3 10.3 3.9 53 4.5 NW 9 15 5 8 1028.9 1028.2 0.0
21/12:00pm 13.3 10.2 5.5 59 3.8 NNW 11 19 6 10 1029.4 1028.7 0.0
21/11:30am 13.2 9.9 6.5 64 3.4 NNW 13 19 7 10 1029.7 1029.1 0.0
21/11:00am 12.3 10.0 5.7 64 3.2 N 7 15 4 8 1030.0 1029.4 0.0
21/10:30am 11.9 9.6 4.6 61 3.5 ESE 6 7 3 4 1030.4 1029.7 0.0
21/10:00am 9.8 7.5 4.6 70 2.4 SW 6 9 3 5 1030.6 1030.0 0.0
21/09:30am 9.3 7.4 4.7 73 2.2 SSW 4 7 2 4 1030.5 1029.8 0.0
21/09:00am 9.3 7.1 6.0 80 1.6 S 7 11 4 6 1030.5 1029.8 0.0
21/08:30am 8.5 4.9 6.8 89 0.8 S 15 19 8 10 1030.3 1029.6 0.0
21/08:00am 6.5 2.4 6.1 97 0.2 S 17 20 9 11 1029.8 1029.2 0.0
21/07:30am 6.1 2.3 5.8 98 0.1 SSW 15 19 8 10 1029.2 1028.5 0.0
21/07:00am 5.8 1.9 5.4 97 0.2 SSW 15 19 8 10 1028.9 1028.2 0.0
21/06:30am 4.9 1.9 4.3 96 0.3 SSW 9 11 5 6 1028.3 1027.6 0.0
21/06:00am 4.7 1.3 4.0 95 0.3 S 11 13 6 7 1028.1 1027.4 0.0
21/05:30am 5.2 3.2 4.5 95 0.3 S 4 4 2 2 1027.8 1027.1 0.0
21/05:00am 5.6 4.1 4.9 95 0.3 S 2 4 1 2 1027.4 1026.8 0.0
21/04:30am 6.1 3.9 5.4 95 0.3 SSE 6 7 3 4 1027.3 1026.7 0.0
21/04:00am 5.7 3.8 5.0 95 0.3 SW 4 7 2 4 1027.1 1026.4 0.0
21/03:30am 6.3 4.2 5.9 97 0.2 S 6 9 3 5 1027.2 1026.5 0.0
21/03:00am 5.3 3.4 4.9 97 0.2 WSW 4 6 2 3 1027.0 1026.3 0.0
21/02:30am 5.2 2.9 4.8 97 0.2 SSW 6 7 3 4 1027.3 1026.7 0.0
21/02:00am 5.4 3.1 4.7 95 0.3 S 6 7 3 4 1027.6 1026.9 0.0
21/01:30am 6.0 4.2 5.4 96 0.3 SSE 4 4 2 2 1027.9 1027.2 0.0
21/01:00am 6.0 3.8 5.3 95 0.3 S 6 9 3 5 1028.2 1027.5 0.0
21/12:30am 5.9 3.5 5.2 95 0.3 S 7 9 4 5 1028.1 1027.4 0.0
21/12:00am 6.0 3.8 5.3 95 0.3 SSE 6 7 3 4 1028.2 1027.5 0.0
 
Date/Time
EST
Temp
°C
App
Temp
°C
Dew
Point
Rel
Hum
%
Delta-T
°C
Wind Press
QNH
hPa
Press
MSL
hPa
Rain
since 9 am
mm
Dir
 
Spd
km/h
Gust
km/h
Spd
kts
Gust
kts
20/11:30pm 6.1 4.3 5.2 94 0.4 SSE 4 9 2 5 1028.2 1027.5 0.0
20/11:00pm 6.1 3.8 4.9 92 0.5 SE 6 9 3 5 1028.2 1027.5 0.0
20/10:30pm 6.2 3.8 4.5 89 0.8 ESE 6 9 3 5 1028.2 1027.5 0.0
20/10:00pm 6.3 3.9 4.1 86 1.0 ESE 6 9 3 5 1028.1 1027.4 0.0
20/09:30pm 6.2 3.4 3.4 82 1.2 SE 7 11 4 6 1028.2 1027.5 0.0
20/09:00pm 7.0 4.4 3.4 78 1.6 E 6 7 3 4 1028.0 1027.3 0.0
20/08:30pm 7.0 3.9 3.8 80 1.4 E 9 13 5 7 1027.8 1027.1 0.0
20/08:00pm 6.9 4.1 3.3 78 1.6 ENE 7 9 4 5 1027.2 1026.5 0.0
20/07:30pm 7.1 4.6 3.7 79 1.5 NE 6 7 3 4 1026.9 1026.2 0.0
20/07:00pm 7.3 3.8 3.7 78 1.6 ENE 11 13 6 7 1026.5 1025.8 0.0
20/06:30pm 7.8 4.0 3.7 75 1.9 ENE 13 15 7 8 1025.8 1025.1 0.0
20/06:00pm 8.8 4.6 3.8 71 2.3 ENE 15 19 8 10 1025.2 1024.5 0.0
20/05:30pm 9.8 6.1 4.4 69 2.5 ENE 13 20 7 11 1024.7 1024.0 0.0
20/05:00pm 11.4 6.6 4.8 64 3.1 ENE 19 28 10 15 1024.0 1023.2 0.0
20/04:30pm 11.4 7.8 4.8 64 3.1 E 13 19 7 10 1023.4 1022.7 0.0
20/04:00pm 13.6 9.1 6.2 61 3.7 NE 19 24 10 13 1023.3 1022.6 0.0
20/03:30pm 14.9 12.6 4.6 50 5.0 SE 6 15 3 8 1023.1 1022.4 0.0
20/03:00pm 15.5 13.5 4.3 47 5.4 ESE 4 7 2 4 1022.9 1022.1 0.0
20/02:30pm 14.6 11.9 3.7 48 5.2 SSE 7 11 4 6 1023.0 1022.2 0.0
20/02:00pm 14.8 12.0 5.3 53 4.7 SSE 9 17 5 9 1023.0 1022.2 0.0
20/01:30pm 14.5 11.9 4.2 50 5.0 S 7 11 4 6 1023.2 1022.5 0.0
20/01:00pm 14.1 11.3 5.2 55 4.3 S 9 19 5 10 1023.4 1022.7 0.0
20/12:30pm 13.0 10.4 4.4 56 4.1 SW 7 13 4 7 1023.5 1022.8 0.0
20/12:00pm 13.0 11.0 4.2 55 4.2 SW 4 11 2 6 1023.9 1023.1 0.0
20/11:30am 13.0 11.1 4.7 57 4.0 S 4 7 2 4 1024.1 1023.3 0.0
20/11:00am 12.4 10.3 5.6 63 3.3 SSE 6 9 3 5 1024.3 1023.6 0.0
20/10:30am 11.0 8.5 4.0 62 3.3 E 6 11 3 6 1024.4 1023.7 0.0
20/10:00am 10.9 8.1 5.2 68 2.7 SE 9 17 5 9 1024.6 1023.9 0.0
20/09:30am 10.2 6.7 5.4 72 2.3 SE 13 19 7 10 1024.6 1023.9 0.0
20/09:00am 9.3 5.2 4.5 72 2.2 SSE 15 20 8 11 1024.4 1023.7 0.0
20/08:30am 8.2 3.2 3.7 73 2.0 SSE 19 26 10 14 1024.2 1023.5 0.0
20/08:00am 7.3 3.2 2.0 69 2.3 S 13 19 7 10 1023.9 1023.1 0.0
20/07:30am 6.5 1.6 1.8 72 2.0 SSW 17 20 9 11 1023.5 1022.8 0.0
20/07:00am 5.6 0.2 1.5 75 1.7 SW 19 20 10 11 1023.1 1022.4 0.0
20/06:30am 3.9 -1.6 0.8 80 1.3 SW 19 20 10 11 1022.6 1021.8 0.0
20/06:00am 3.8 -1.9 0.3 78 1.4 SW 20 22 11 12 1021.9 1021.1 0.0
20/05:30am 4.3 -1.4 0.5 76 1.5 WSW 20 22 11 12 1021.6 1020.8 0.0
20/05:00am 4.1 -1.4 0.4 77 1.5 WSW 19 22 10 12 1021.2 1020.4 0.0
20/04:30am 4.4 -1.7 0.4 75 1.6 WSW 22 26 12 14 1020.8 1020.0 0.0
20/04:00am 5.2 -1.2 0.8 73 1.8 WSW 24 28 13 15 1020.4 1019.6 0.0
20/03:30am 5.1 -1.0 0.7 73 1.8 W 22 26 12 14 1020.3 1019.5 0.0
20/03:00am 5.0 -1.1 0.6 73 1.8 W 22 24 12 13 1020.2 1019.4 0.0
20/02:30am 5.1 -1.4 0.5 72 1.9 W 24 24 13 13 1020.5 1019.7 0.0
20/02:00am 5.7 -0.7 0.7 70 2.1 W 24 28 13 15 1020.6 1019.8 0.0
20/01:30am 5.7 -0.8 0.5 69 2.1 W 24 26 13 14 1021.0 1020.2 0.0
20/01:00am 5.9 -0.2 0.7 69 2.1 W 22 24 12 13 1021.2 1020.4 0.0
20/12:30am 5.6 0.0 1.2 73 1.8 W 20 22 11 12 1021.2 1020.4 0.0
20/12:00am 5.9 0.2 0.7 69 2.1 W 20 22 11 12 1021.2 1020.4 0.0
 
Date/Time
EST
Temp
°C
App
Temp
°C
Dew
Point
Rel
Hum
%
Delta-T
°C
Wind Press
QNH
hPa
Press
MSL
hPa
Rain
since 9 am
mm
Dir
 
Spd
km/h
Gust
km/h
Spd
kts
Gust
kts
19/11:30pm 5.8 0.1 0.8 70 2.1 W 20 22 11 12 1021.4 1020.6 0.0
19/11:00pm 6.4 0.3 0.7 67 2.4 W 22 26 12 14 1021.6 1020.8 0.0
19/10:30pm 6.3 0.8 0.4 66 2.4 W 19 20 10 11 1021.8 1021.0 0.0
19/10:00pm 6.8 1.1 -0.9 58 3.1 WSW 19 20 10 11 1021.9 1021.1 0.0
19/09:30pm 6.7 1.0 -0.7 59 3.0 WSW 19 22 10 12 1021.9 1021.1 0.0
19/09:00pm 7.4 1.7 -0.5 57 3.2 WSW 19 20 10 11 1021.8 1021.0 0.0
19/08:30pm 8.0 2.3 -0.7 54 3.5 WSW 19 20 10 11 1021.7 1020.9 0.0
19/08:00pm 7.7 2.7 -1.5 52 3.7 W 15 19 8 10 1021.6 1020.8 0.0
19/07:30pm 7.5 2.7 -2.2 50 3.8 W 13 17 7 9 1021.3 1020.5 0.0
19/07:00pm 8.0 2.9 -2.3 48 4.0 W 15 20 8 11 1020.8 1020.0 0.0
19/06:30pm 9.6 4.6 -4.0 38 5.2 WNW 13 17 7 9 1020.4 1019.6 0.0
19/06:00pm 8.9 3.6 -3.3 42 4.7 W 15 20 8 11 1020.1 1019.3 0.0
19/05:30pm 10.9 5.7 -2.8 38 5.5 W 15 20 8 11 1019.8 1018.9 0.0
19/05:00pm 11.9 6.0 -6.0 28 6.7 WSW 17 26 9 14 1019.2 1018.4 0.0
19/04:30pm 13.0 8.2 -2.9 33 6.5 W 13 22 7 12 1019.1 1018.3 0.0
19/04:00pm 13.1 6.7 -5.0 28 7.0 WSW 20 32 11 17 1018.8 1018.0 0.0
19/03:30pm 13.7 7.5 -4.9 27 7.3 WSW 19 28 10 15 1018.8 1018.0 0.0
19/03:00pm 13.8 7.7 -3.9 29 7.1 W 19 32 10 17 1018.9 1018.1 0.0
19/02:30pm 13.8 7.4 -1.4 35 6.5 W 22 32 12 17 1018.9 1018.1 0.0

Other Formats:

Comma delimited format used in spreadsheet applications
http://www.bom.gov.au/fwo/IDN60801/IDN60801.99742.axf

JavaScript Object Notation format (JSON) in row-major order
http://www.bom.gov.au/fwo/IDN60801/IDN60801.99742.json